createdAt,value
2018-03-07T00:02:55.281Z,20.03
2018-03-07T00:05:58.556Z,24.67
2018-03-07T00:09:02.354Z,25.30
2018-03-07T00:12:06.391Z,20.13
2018-03-07T00:15:09.674Z,23.70
2018-03-07T00:18:12.945Z,21.57
2018-03-07T00:21:16.973Z,23.13
2018-03-07T00:24:21.014Z,20.17
2018-03-07T00:27:24.391Z,21.13
2018-03-07T00:30:27.669Z,19.70
2018-03-07T00:33:31.699Z,23.20
2018-03-07T00:36:35.812Z,24.70
2018-03-07T00:39:39.989Z,21.43
2018-03-07T00:42:43.300Z,19.57
2018-03-07T00:45:46.674Z,20.37
2018-03-07T00:48:49.951Z,25.73
2018-03-07T00:51:53.232Z,24.87
2018-03-07T00:54:57.353Z,23.27
2018-03-07T00:58:00.631Z,23.20
2018-03-07T01:01:04.693Z,22.80
2018-03-07T01:04:08.373Z,21.63
2018-03-07T01:07:11.652Z,23.50
2018-03-07T01:10:16.952Z,21.13
2018-03-07T01:13:20.253Z,24.30
2018-03-07T01:16:23.524Z,23.13
2018-03-07T01:19:26.903Z,22.47
2018-03-07T01:22:31.135Z,24.50
2018-03-07T01:25:34.401Z,26.33
2018-03-07T01:28:38.434Z,27.17
2018-03-07T01:31:42.470Z,27.40
2018-03-07T01:34:47.740Z,28.40
2018-03-07T01:37:51.111Z,29.70
2018-03-07T01:40:54.415Z,22.33
2018-03-07T01:43:57.709Z,23.80
2018-03-07T01:47:01.016Z,28.43
2018-03-07T01:50:04.387Z,30.25
2018-03-07T01:53:07.881Z,26.43
2018-03-07T01:56:11.921Z,23.90
2018-03-07T01:59:15.180Z,21.50
2018-03-07T02:02:19.220Z,24.58
2018-03-07T02:05:29.366Z,25.44
2018-03-07T02:18:37.551Z,24.73
2018-03-07T02:21:40.812Z,21.27
2018-03-07T02:24:44.154Z,22.23
2018-03-07T02:27:48.197Z,18.65
2018-03-07T02:30:51.567Z,22.00
2018-03-07T02:33:54.863Z,25.73
2018-03-07T02:36:58.182Z,22.55
2018-03-07T02:40:01.454Z,19.77
2018-03-07T02:43:05.485Z,20.80
2018-03-07T02:46:08.765Z,21.53
2018-03-07T02:49:12.018Z,18.63
2018-03-07T02:52:15.288Z,20.93
2018-03-07T02:55:19.501Z,19.75
2018-03-07T02:58:22.769Z,19.08
2018-03-07T03:01:26.802Z,19.73
2018-03-07T03:04:30.065Z,15.03
2018-03-07T03:07:33.357Z,17.30
2018-03-07T03:10:36.613Z,19.23
2018-03-07T03:13:39.878Z,16.50
2018-03-07T03:16:43.165Z,16.20
2018-03-07T03:19:47.192Z,17.30
2018-03-07T03:22:50.839Z,17.73
2018-03-07T03:25:54.077Z,17.08
2018-03-07T03:28:58.124Z,14.75
2018-03-07T03:32:01.470Z,14.82
2018-03-07T03:35:04.776Z,14.40
2018-03-07T03:38:08.077Z,17.03
2018-03-07T03:41:11.345Z,15.43
2018-03-07T03:44:14.598Z,13.50
2018-03-07T03:47:17.862Z,16.23
2018-03-07T03:50:21.155Z,12.03
2018-03-07T03:53:24.417Z,14.32
2018-03-07T03:56:27.684Z,16.55
2018-03-07T03:59:30.949Z,12.90
2018-03-07T04:02:34.216Z,12.00
2018-03-07T04:05:37.485Z,14.50
2018-03-07T04:08:40.775Z,11.83
2018-03-07T04:11:44.260Z,14.55
2018-03-07T04:14:48.298Z,10.40
2018-03-07T04:17:51.574Z,12.03
2018-03-07T04:20:56.011Z,12.48
2018-03-07T04:24:00.045Z,11.87
2018-03-07T04:27:03.338Z,9.80
2018-03-07T04:30:06.597Z,10.40
2018-03-07T04:33:10.657Z,11.20
2018-03-07T04:36:13.929Z,14.17
2018-03-07T04:39:17.193Z,11.10
2018-03-07T04:42:21.722Z,11.73
2018-03-07T04:45:24.986Z,12.90
2018-03-07T04:48:28.237Z,7.27
2018-03-07T04:51:32.304Z,11.20
2018-03-07T04:54:35.569Z,9.03
2018-03-07T04:57:41.445Z,8.57
2018-03-07T05:00:44.713Z,9.03
2018-03-07T05:03:47.988Z,9.77
2018-03-07T05:06:51.625Z,6.95
2018-03-07T05:09:54.887Z,8.43
2018-03-07T05:12:58.158Z,9.53
2018-03-07T05:16:01.409Z,7.60
2018-03-07T05:19:05.526Z,7.97
2018-03-07T05:22:09.559Z,7.73
2018-03-07T05:25:12.955Z,12.77
2018-03-07T05:28:16.268Z,9.10
2018-03-07T05:31:19.522Z,10.40
2018-03-07T05:34:23.564Z,7.33
2018-03-07T05:37:27.501Z,8.20
2018-03-07T05:40:30.768Z,8.85
2018-03-07T05:43:34.056Z,7.60
2018-03-07T05:46:38.118Z,8.13
2018-03-07T05:49:41.474Z,7.53
2018-03-07T05:52:45.518Z,10.27
2018-03-07T05:55:48.839Z,7.97
2018-03-07T05:58:52.109Z,6.47
2018-03-07T06:01:55.372Z,7.10
2018-03-07T06:04:59.417Z,5.80
2018-03-07T06:08:02.737Z,10.03
2018-03-07T06:11:06.173Z,8.27
2018-03-07T06:14:09.660Z,8.97
2018-03-07T06:17:12.931Z,7.33
2018-03-07T06:20:17.080Z,8.27
2018-03-07T06:23:20.352Z,8.33
2018-03-07T06:26:23.900Z,7.37
2018-03-07T06:29:28.079Z,6.47
2018-03-07T06:32:31.379Z,6.13
2018-03-07T06:35:34.836Z,7.20
2018-03-07T06:38:38.175Z,5.97
2018-03-07T06:41:41.506Z,6.80
2018-03-07T06:44:44.887Z,6.10
2018-03-07T06:47:48.300Z,6.67
2018-03-07T06:50:51.745Z,5.20
2018-03-07T06:53:55.074Z,5.60
2018-03-07T06:56:58.397Z,6.37
2018-03-07T07:00:01.767Z,7.70
2018-03-07T07:03:05.027Z,5.13
2018-03-07T07:06:09.128Z,4.83
2018-03-07T07:09:15.159Z,5.73
2018-03-07T07:12:18.516Z,5.37
2018-03-07T07:15:21.810Z,6.00
2018-03-07T07:18:26.780Z,6.80
2018-03-07T07:21:30.109Z,5.62
2018-03-07T07:24:33.419Z,5.57
2018-03-07T07:27:36.849Z,5.57
2018-03-07T07:30:40.121Z,4.93
2018-03-07T07:33:45.489Z,6.05
2018-03-07T07:36:48.825Z,7.43
2018-03-07T07:39:52.085Z,5.00
2018-03-07T07:42:55.364Z,6.47
2018-03-07T07:45:59.477Z,5.28
2018-03-07T07:49:02.792Z,5.50
2018-03-07T07:52:06.859Z,4.22
2018-03-07T07:55:10.135Z,3.62
2018-03-07T07:58:13.405Z,2.97
2018-03-07T08:01:16.708Z,2.67
2018-03-07T08:04:19.961Z,3.17
2018-03-07T08:07:23.236Z,3.13
2018-03-07T08:10:26.529Z,3.50
2018-03-07T08:13:29.785Z,3.27
2018-03-07T08:16:33.069Z,3.35
2018-03-07T08:19:36.397Z,3.77
2018-03-07T08:22:39.652Z,2.57
2018-03-07T08:25:42.929Z,4.37
2018-03-07T08:28:47.824Z,2.80
2018-03-07T08:31:51.084Z,2.78
2018-03-07T08:34:54.409Z,3.37
2018-03-07T08:37:57.710Z,3.03
2018-03-07T08:41:01.926Z,4.60
2018-03-07T08:44:06.049Z,2.70
2018-03-07T08:47:09.321Z,3.70
2018-03-07T08:50:12.881Z,4.97
2018-03-07T08:53:16.225Z,5.77
2018-03-07T08:56:19.517Z,5.20
2018-03-07T08:59:23.108Z,4.80
2018-03-07T09:02:26.385Z,3.43
2018-03-07T09:05:29.637Z,4.57
2018-03-07T09:08:33.718Z,3.03
2018-03-07T09:11:37.070Z,3.73
2018-03-07T09:14:40.369Z,2.75
2018-03-07T09:17:43.656Z,3.60
2018-03-07T09:20:46.922Z,2.93
2018-03-07T09:23:50.975Z,5.17
2018-03-07T09:26:54.880Z,4.23
2018-03-07T09:29:58.200Z,2.50
2018-03-07T09:33:01.468Z,4.10
2018-03-07T09:36:04.741Z,4.12
2018-03-07T09:39:08.068Z,2.57
2018-03-07T09:42:12.110Z,4.13
2018-03-07T09:45:15.379Z,3.70
2018-03-07T09:48:19.010Z,3.03
2018-03-07T09:51:22.274Z,3.23
2018-03-07T09:54:26.321Z,2.60
2018-03-07T09:57:29.693Z,4.63
2018-03-07T10:00:32.949Z,2.97
2018-03-07T10:03:36.217Z,3.60
2018-03-07T10:06:39.484Z,2.50
2018-03-07T10:09:43.566Z,3.23
2018-03-07T10:12:47.843Z,3.77
2018-03-07T10:15:51.112Z,2.97
2018-03-07T10:18:55.300Z,2.92
2018-03-07T10:21:58.563Z,3.13
2018-03-07T10:25:01.836Z,2.90
2018-03-07T10:28:05.093Z,2.73
2018-03-07T10:31:08.352Z,1.57
2018-03-07T10:34:12.337Z,2.57
2018-03-07T10:37:16.088Z,2.03
2018-03-07T10:40:21.776Z,2.15
2018-03-07T10:43:25.817Z,1.90
2018-03-07T10:46:29.105Z,1.27
2018-03-07T10:49:33.125Z,2.90
2018-03-07T10:52:36.377Z,1.30
2018-03-07T10:55:39.728Z,1.55
2018-03-07T10:58:42.997Z,1.73
2018-03-07T11:01:47.028Z,1.43
2018-03-07T11:04:51.868Z,2.30
2018-03-07T11:07:55.582Z,1.98
2018-03-07T11:10:58.876Z,3.80
2018-03-07T11:14:02.129Z,2.17
2018-03-07T11:17:05.394Z,2.50
2018-03-07T11:20:08.685Z,1.77
2018-03-07T11:23:11.963Z,0.67
2018-03-07T11:26:15.230Z,0.80
2018-03-07T11:29:19.334Z,1.27
2018-03-07T11:32:23.373Z,2.50
2018-03-07T11:35:27.407Z,1.58
2018-03-07T11:38:30.674Z,1.27
2018-03-07T11:41:34.726Z,3.08
2018-03-07T11:44:37.984Z,2.00
2018-03-07T11:47:42.013Z,0.67
2018-03-07T11:50:46.070Z,0.83
2018-03-07T11:53:49.330Z,0.87
2018-03-07T11:56:52.732Z,0.70
2018-03-07T11:59:56.766Z,2.17
2018-03-07T12:03:00.150Z,1.27
2018-03-07T12:06:03.424Z,0.63
2018-03-07T12:09:07.652Z,0.87
2018-03-07T12:12:10.928Z,1.87
2018-03-07T12:15:15.692Z,1.27
2018-03-07T12:18:18.976Z,1.40
2018-03-07T12:21:22.990Z,1.65
2018-03-07T12:24:27.035Z,1.67
2018-03-07T12:27:30.376Z,4.87
2018-03-07T12:30:33.618Z,0.93
2018-03-07T12:33:36.897Z,1.00
2018-03-07T12:36:41.171Z,1.03
2018-03-07T12:39:44.428Z,0.57
2018-03-07T12:42:47.708Z,0.60
2018-03-07T12:45:51.778Z,0.90
2018-03-07T12:48:55.046Z,0.90
2018-03-07T12:51:59.091Z,1.45
2018-03-07T12:55:02.358Z,0.50
2018-03-07T12:58:05.628Z,0.57
2018-03-07T13:01:08.945Z,0.63
2018-03-07T13:04:13.007Z,0.60
2018-03-07T13:07:17.117Z,0.88
2018-03-07T13:10:24.505Z,0.82
2018-03-07T13:13:27.785Z,0.40
2018-03-07T13:16:31.296Z,0.40
2018-03-07T13:19:34.772Z,1.17
2018-03-07T13:22:38.863Z,1.43
2018-03-07T13:25:42.124Z,2.20
2018-03-07T13:28:45.471Z,0.97
2018-03-07T13:31:48.759Z,0.97
2018-03-07T13:34:55.133Z,0.67
2018-03-07T13:37:59.264Z,1.77
2018-03-07T13:41:03.371Z,1.80
2018-03-07T13:44:09.372Z,2.30
2018-03-07T13:47:12.642Z,0.90
2018-03-07T13:50:16.688Z,3.80
2018-03-07T13:53:19.956Z,0.50
2018-03-07T13:56:25.657Z,1.97
2018-03-07T13:59:30.449Z,0.50
2018-03-07T14:02:35.481Z,2.22
2018-03-07T14:05:40.231Z,0.80
2018-03-07T14:08:45.712Z,0.90
2018-03-07T14:11:49.295Z,0.23
2018-03-07T14:14:52.605Z,1.60
2018-03-07T14:17:55.892Z,0.83
2018-03-07T14:20:59.173Z,1.67
2018-03-07T14:24:03.221Z,0.83
2018-03-07T14:27:07.518Z,4.63
2018-03-07T14:30:11.281Z,0.43
2018-03-07T14:33:15.995Z,0.63
2018-03-07T14:36:20.496Z,0.57
2018-03-07T14:39:24.462Z,0.93
2018-03-07T14:42:28.226Z,5.40
2018-03-07T14:45:32.396Z,11.57
2018-03-07T14:48:35.729Z,4.27
2018-03-07T14:51:53.914Z,1.27
2018-03-07T14:54:57.551Z,0.27
2018-03-07T14:58:00.819Z,0.75
2018-03-07T15:01:04.256Z,0.95
2018-03-07T15:04:09.227Z,2.50
2018-03-07T15:07:13.518Z,0.40
2018-03-07T15:10:17.009Z,0.80
2018-03-07T15:13:21.309Z,0.13
2018-03-07T15:16:25.058Z,1.73
2018-03-07T15:19:29.960Z,1.37
2018-03-07T15:22:33.249Z,1.83
2018-03-07T15:25:36.557Z,0.35
2018-03-07T15:28:39.848Z,1.00
2018-03-07T15:31:43.146Z,1.13
2018-03-07T15:34:46.429Z,1.40
2018-03-07T15:37:49.689Z,3.03
2018-03-07T15:40:53.110Z,5.07
2018-03-07T15:43:57.761Z,4.03
2018-03-07T15:47:01.152Z,1.80
2018-03-07T15:50:05.969Z,1.00
2018-03-07T15:53:10.801Z,1.47
2018-03-07T15:56:14.346Z,2.17
2018-03-07T15:59:17.785Z,0.43
2018-03-07T16:02:21.048Z,0.97
2018-03-07T16:05:24.430Z,0.57
2018-03-07T16:08:28.465Z,0.90
2018-03-07T16:11:31.773Z,2.77
2018-03-07T16:14:35.057Z,2.87
2018-03-07T16:17:38.446Z,1.43
2018-03-07T16:20:42.481Z,1.07
2018-03-07T16:23:47.276Z,1.20
2018-03-07T16:26:52.083Z,2.83
2018-03-07T16:29:55.329Z,0.60
2018-03-07T16:32:59.401Z,1.10
2018-03-07T16:36:04.191Z,3.33
2018-03-07T16:39:07.437Z,7.80
2018-03-07T16:42:10.701Z,1.20
2018-03-07T16:45:13.972Z,1.03
2018-03-07T16:48:17.257Z,0.50
2018-03-07T16:51:21.295Z,5.83
2018-03-07T16:54:24.549Z,2.43
2018-03-07T16:57:27.810Z,0.43
2018-03-07T17:00:31.060Z,2.27
2018-03-07T17:03:35.133Z,1.00
2018-03-07T17:06:38.517Z,2.42
2018-03-07T17:09:41.770Z,1.93
2018-03-07T17:12:45.124Z,2.13
2018-03-07T17:15:48.512Z,0.97
2018-03-07T17:18:51.796Z,1.50
2018-03-07T17:21:55.110Z,1.50
2018-03-07T17:24:58.369Z,2.07
2018-03-07T17:28:02.395Z,1.87
2018-03-07T17:31:05.788Z,1.50
2018-03-07T17:34:09.800Z,1.90
2018-03-07T17:37:13.888Z,0.83
2018-03-07T17:40:17.217Z,1.73
2018-03-07T17:43:20.517Z,4.72
2018-03-07T17:46:23.773Z,3.20
2018-03-07T17:49:27.041Z,1.47
2018-03-07T17:52:30.320Z,1.23
2018-03-07T17:55:33.576Z,2.87
2018-03-07T17:58:36.835Z,1.73
2018-03-07T18:01:47.389Z,2.40
2018-03-07T18:04:50.634Z,1.77
2018-03-07T18:07:53.904Z,1.40
2018-03-07T18:10:57.161Z,3.20
2018-03-07T18:14:00.433Z,1.93
2018-03-07T18:17:03.688Z,3.23
2018-03-07T18:20:07.019Z,4.53
2018-03-07T18:23:11.064Z,6.03
2018-03-07T18:26:14.540Z,6.70
2018-03-07T18:29:17.801Z,8.77
2018-03-07T18:32:21.084Z,5.00
2018-03-07T18:35:24.560Z,7.63
2018-03-07T18:38:27.834Z,2.80
2018-03-07T18:41:31.097Z,4.53
2018-03-07T18:44:34.356Z,3.20
2018-03-07T18:47:37.633Z,4.45
2018-03-07T18:50:41.645Z,3.23
2018-03-07T18:53:45.675Z,2.37
2018-03-07T18:56:49.734Z,2.03
2018-03-07T18:59:53.029Z,3.33
2018-03-07T19:02:56.286Z,1.80
2018-03-07T19:06:00.364Z,2.17
2018-03-07T19:09:05.568Z,1.50
2018-03-07T19:12:08.886Z,1.43
2018-03-07T19:15:12.311Z,1.63
2018-03-07T19:18:16.348Z,1.30
2018-03-07T19:21:20.378Z,3.47
2018-03-07T19:24:24.410Z,3.23
2018-03-07T19:27:27.670Z,1.87
2018-03-07T19:30:31.086Z,3.07
2018-03-07T19:33:35.191Z,1.20
2018-03-07T19:36:39.209Z,3.40
2018-03-07T19:39:43.232Z,1.07
2018-03-07T19:42:47.301Z,1.30
2018-03-07T19:45:50.580Z,0.83
2018-03-07T19:48:53.848Z,1.92
2018-03-07T19:51:57.143Z,2.73
2018-03-07T19:55:00.400Z,1.13
2018-03-07T19:58:03.672Z,0.93
2018-03-07T20:01:06.930Z,0.93
2018-03-07T20:04:10.973Z,0.77
2018-03-07T20:07:14.269Z,0.40
2018-03-07T20:10:17.523Z,1.00
2018-03-07T20:13:21.553Z,1.80
2018-03-07T20:16:25.665Z,0.95
2018-03-07T20:19:29.757Z,1.70
2018-03-07T20:22:33.013Z,2.40
2018-03-07T20:25:36.282Z,2.43
2018-03-07T20:28:40.302Z,3.70
2018-03-07T20:31:44.326Z,3.17
2018-03-07T20:34:47.623Z,1.57
2018-03-07T20:38:04.733Z,2.43
2018-03-07T20:41:08.761Z,3.03
2018-03-07T20:44:13.220Z,1.80
2018-03-07T20:47:16.513Z,0.40
2018-03-07T20:50:21.435Z,3.50
2018-03-07T20:53:30.210Z,0.93
2018-03-07T20:56:33.661Z,2.30
2018-03-07T20:59:37.577Z,1.43
2018-03-07T21:02:40.836Z,3.75
2018-03-07T21:05:44.136Z,4.03
2018-03-07T21:08:47.473Z,1.80
2018-03-07T21:11:50.733Z,3.45
2018-03-07T21:14:54.847Z,3.50
2018-03-07T21:17:58.177Z,2.08
2018-03-07T21:21:01.456Z,5.63
2018-03-07T21:24:05.557Z,3.43
2018-03-07T21:27:10.332Z,4.62
2018-03-07T21:30:14.129Z,4.70
2018-03-07T21:33:18.157Z,1.17
2018-03-07T21:36:21.478Z,1.03
2018-03-07T21:39:24.751Z,1.20
2018-03-07T21:42:28.001Z,2.47
2018-03-07T21:45:31.435Z,0.33
2018-03-07T21:48:35.473Z,0.50
2018-03-07T21:51:38.847Z,0.20
2018-03-07T21:54:42.878Z,0.33
2018-03-07T21:57:46.167Z,0.43
2018-03-07T22:00:50.200Z,1.23
2018-03-07T22:03:53.471Z,0.20
2018-03-07T22:06:57.496Z,0.30
2018-03-07T22:10:01.523Z,0.20
2018-03-07T22:13:04.816Z,0.30
2018-03-07T22:16:08.072Z,0.93
2018-03-07T22:19:12.100Z,0.30
2018-03-07T22:22:16.231Z,0.40
2018-03-07T22:25:20.259Z,0.97
2018-03-07T22:28:23.540Z,0.20
2018-03-07T22:31:26.850Z,0.73
2018-03-07T22:34:30.186Z,1.20
2018-03-07T22:37:33.437Z,0.10
2018-03-07T22:40:37.469Z,0.10
2018-03-07T22:43:40.733Z,0.20
2018-03-07T22:46:44.795Z,0.17
2018-03-07T22:49:48.116Z,0.10
2018-03-07T22:52:51.465Z,0.20
2018-03-07T22:55:54.725Z,0.20
2018-03-07T22:58:59.504Z,0.13
2018-03-07T23:02:02.770Z,0.10
2018-03-07T23:05:06.810Z,0.13
2018-03-07T23:08:10.120Z,0.50
2018-03-07T23:11:14.150Z,0.20
2018-03-07T23:14:17.624Z,0.43
2018-03-07T23:17:20.900Z,1.07
2018-03-07T23:20:24.937Z,0.37
2018-03-07T23:23:28.189Z,0.50
2018-03-07T23:26:31.531Z,1.37
2018-03-07T23:29:34.926Z,0.30
2018-03-07T23:32:38.966Z,0.23
2018-03-07T23:35:42.345Z,0.20
2018-03-07T23:38:45.633Z,0.20
2018-03-07T23:41:49.701Z,0.20
2018-03-07T23:44:52.958Z,0.27
2018-03-07T23:47:56.331Z,0.37
2018-03-07T23:51:00.354Z,0.50
2018-03-07T23:54:04.386Z,0.10
2018-03-07T23:57:07.652Z,0.30
